createdAt,value
2019-01-30T00:01:42.009Z,98643.11
2019-01-30T00:04:09.496Z,98641.28
2019-01-30T00:06:37.330Z,98632.61
2019-01-30T00:09:11.050Z,98627.77
2019-01-30T00:11:38.776Z,98620.85
2019-01-30T00:14:10.404Z,98613.64
2019-01-30T00:16:38.310Z,98610.57
2019-01-30T00:19:06.258Z,98605.13
2019-01-30T00:21:33.558Z,98602.84
2019-01-30T00:24:01.178Z,98610.58
2019-01-30T00:26:28.972Z,98597.47
2019-01-30T00:28:56.967Z,98595.22
2019-01-30T00:31:24.356Z,98593.06
2019-01-30T00:33:51.870Z,98588.31
2019-01-30T00:36:19.217Z,98587.70
2019-01-30T00:38:47.359Z,98583.68
2019-01-30T00:41:14.588Z,98582.64
2019-01-30T00:43:42.124Z,98573.48
2019-01-30T00:46:09.682Z,98572.45
2019-01-30T00:48:37.384Z,98571.94
2019-01-30T00:51:04.770Z,98569.27
2019-01-30T00:53:32.952Z,98559.98
2019-01-30T00:56:00.360Z,98558.12
2019-01-30T00:58:27.618Z,98551.64
2019-01-30T01:00:58.254Z,98547.84
2019-01-30T01:03:25.902Z,98544.42
2019-01-30T01:05:53.782Z,98541.35
2019-01-30T01:08:21.951Z,98543.00
2019-01-30T01:10:49.768Z,98541.02
2019-01-30T01:13:17.585Z,98533.10
2019-01-30T01:15:44.935Z,98530.94
2019-01-30T01:18:12.807Z,98526.50
2019-01-30T01:20:40.887Z,98523.42
2019-01-30T01:23:08.609Z,98519.20
2019-01-30T01:25:36.358Z,98523.83
2019-01-30T01:28:04.043Z,98522.78
2019-01-30T01:30:31.683Z,98517.64
2019-01-30T01:32:59.454Z,98513.84
2019-01-30T01:35:26.709Z,98517.13
2019-01-30T01:37:54.569Z,98512.19
2019-01-30T01:40:22.584Z,98507.66
2019-01-30T01:42:50.843Z,98505.50
2019-01-30T01:45:21.192Z,98494.15
2019-01-30T01:47:48.846Z,98487.97
2019-01-30T01:50:18.510Z,98483.87
2019-01-30T01:52:46.246Z,98475.75
2019-01-30T01:55:13.790Z,98476.87
2019-01-30T01:57:41.265Z,98468.11
2019-01-30T02:00:13.418Z,98463.58
2019-01-30T02:02:40.800Z,98468.84
2019-01-30T02:05:11.958Z,98453.91
2019-01-30T02:07:39.906Z,98453.61
2019-01-30T02:10:09.271Z,98440.31
2019-01-30T02:12:36.771Z,98443.63
2019-01-30T02:15:07.338Z,98436.42
2019-01-30T02:17:35.312Z,98438.98
2019-01-30T02:20:04.014Z,98433.45
2019-01-30T02:22:31.541Z,98425.41
2019-01-30T02:24:59.112Z,98423.34
2019-01-30T02:27:26.933Z,98416.13
2019-01-30T02:29:55.081Z,98416.74
2019-01-30T02:32:22.899Z,98399.98
2019-01-30T02:34:50.456Z,98401.31
2019-01-30T02:37:17.847Z,98394.20
2019-01-30T02:39:45.371Z,98382.59
2019-01-30T02:42:13.380Z,98374.23
2019-01-30T02:44:40.762Z,98369.61
2019-01-30T02:47:08.316Z,98366.11
2019-01-30T02:49:36.117Z,98357.99
2019-01-30T02:52:04.033Z,98357.57
2019-01-30T02:54:31.564Z,98349.33
2019-01-30T02:56:58.859Z,98338.01
2019-01-30T02:59:26.638Z,98337.17
2019-01-30T03:02:10.878Z,98333.77
2019-01-30T03:04:38.322Z,98335.53
2019-01-30T03:07:05.777Z,98327.58
2019-01-30T03:09:33.194Z,98321.83
2019-01-30T03:12:00.682Z,98316.48
2019-01-30T03:14:28.400Z,98317.80
2019-01-30T03:16:56.530Z,98310.61
2019-01-30T03:19:24.474Z,98304.08
2019-01-30T03:21:52.236Z,98313.45
2019-01-30T03:24:19.757Z,98316.44
2019-01-30T03:26:47.503Z,98310.89
2019-01-30T03:29:15.115Z,98308.91
2019-01-30T03:31:42.351Z,98304.41
2019-01-30T03:34:09.579Z,98305.86
2019-01-30T03:36:37.120Z,98305.42
2019-01-30T03:39:06.748Z,98281.74
2019-01-30T03:41:34.863Z,98275.95
2019-01-30T03:44:03.446Z,98275.55
2019-01-30T03:46:30.829Z,98279.04
2019-01-30T03:48:58.503Z,98280.89
2019-01-30T03:51:25.969Z,98278.98
2019-01-30T03:53:54.039Z,98272.29
2019-01-30T03:56:21.731Z,98279.09
2019-01-30T03:58:49.493Z,98278.55
2019-01-30T04:01:26.456Z,98281.52
2019-01-30T04:03:46.817Z,98277.50
2019-01-30T04:06:14.210Z,98273.59
2019-01-30T04:08:41.615Z,98273.81
2019-01-30T04:11:09.408Z,98274.20
2019-01-30T04:13:37.290Z,98267.98
2019-01-30T04:16:05.006Z,98264.90
2019-01-30T04:18:32.756Z,98276.55
2019-01-30T04:21:00.640Z,98271.45
2019-01-30T04:23:27.904Z,98278.19
2019-01-30T04:25:55.296Z,98275.28
2019-01-30T04:28:22.828Z,98274.05
2019-01-30T04:30:50.291Z,98273.83
2019-01-30T04:33:21.333Z,98275.36
2019-01-30T04:35:49.488Z,98277.11
2019-01-30T04:38:17.377Z,98278.56
2019-01-30T04:40:45.557Z,98271.64
2019-01-30T04:43:13.134Z,98262.82
2019-01-30T04:45:40.287Z,98258.38
2019-01-30T04:48:07.886Z,98255.26
2019-01-30T04:50:35.622Z,98251.59
2019-01-30T04:53:03.736Z,98256.55
2019-01-30T04:55:31.012Z,98254.28
2019-01-30T04:57:58.534Z,98244.33
2019-01-30T05:00:26.483Z,98249.06
2019-01-30T05:02:54.076Z,98248.94
2019-01-30T05:05:21.617Z,98255.49
2019-01-30T05:07:48.868Z,98244.53
2019-01-30T05:10:16.734Z,98242.72
2019-01-30T05:12:44.216Z,98243.78
2019-01-30T05:15:14.883Z,98235.51
2019-01-30T05:17:42.385Z,98238.88
2019-01-30T05:20:11.945Z,98243.15
2019-01-30T05:22:39.338Z,98265.13
2019-01-30T05:25:07.248Z,98247.87
2019-01-30T05:27:34.737Z,98239.66
2019-01-30T05:30:02.440Z,98242.22
2019-01-30T05:32:29.684Z,98240.05
2019-01-30T05:34:57.069Z,98238.78
2019-01-30T05:37:24.625Z,98234.17
2019-01-30T05:39:52.118Z,98229.79
2019-01-30T05:42:19.747Z,98217.55
2019-01-30T05:44:47.679Z,98217.65
2019-01-30T05:47:16.142Z,98216.08
2019-01-30T05:49:43.589Z,98213.04
2019-01-30T05:52:10.976Z,98227.50
2019-01-30T05:54:38.263Z,98222.06
2019-01-30T05:57:05.743Z,98224.52
2019-01-30T05:59:33.144Z,98220.36
2019-01-30T06:02:11.475Z,98228.77
2019-01-30T06:04:30.374Z,98216.17
2019-01-30T06:06:57.914Z,98223.56
2019-01-30T06:09:25.411Z,98223.92
2019-01-30T06:11:53.621Z,98229.45
2019-01-30T06:14:21.437Z,98230.34
2019-01-30T06:16:49.144Z,98222.88
2019-01-30T06:19:16.983Z,98228.56
2019-01-30T06:21:44.678Z,98227.05
2019-01-30T06:24:12.477Z,98212.06
2019-01-30T06:26:40.063Z,98204.92
2019-01-30T06:29:07.579Z,98211.11
2019-01-30T06:31:35.071Z,98210.05
2019-01-30T06:34:02.462Z,98208.25
2019-01-30T06:36:29.890Z,98216.46
2019-01-30T06:38:57.116Z,98217.37
2019-01-30T06:41:25.269Z,98218.34
2019-01-30T06:43:53.037Z,98213.70
2019-01-30T06:46:20.400Z,98210.42
2019-01-30T06:48:47.824Z,98205.81
2019-01-30T06:51:15.871Z,98208.27
2019-01-30T06:53:43.665Z,98194.60
2019-01-30T06:56:11.014Z,98198.19
2019-01-30T06:58:38.271Z,98196.32
2019-01-30T07:01:05.930Z,98190.87
2019-01-30T07:03:35.480Z,98185.79
2019-01-30T07:06:03.245Z,98189.81
2019-01-30T07:08:30.918Z,98191.55
2019-01-30T07:10:58.367Z,98180.51
2019-01-30T07:13:25.741Z,98182.95
2019-01-30T07:15:52.863Z,98182.98
2019-01-30T07:18:20.191Z,98185.79
2019-01-30T07:20:48.122Z,98187.66
2019-01-30T07:23:15.819Z,98183.63
2019-01-30T07:25:43.570Z,98184.39
2019-01-30T07:28:10.998Z,98180.80
2019-01-30T07:30:39.381Z,98176.19
2019-01-30T07:33:07.447Z,98180.86
2019-01-30T07:35:35.330Z,98184.83
2019-01-30T07:38:03.450Z,98180.80
2019-01-30T07:43:13.649Z,98174.96
2019-01-30T07:46:00.124Z,98181.97
2019-01-30T07:48:29.151Z,98189.20
2019-01-30T07:50:57.544Z,98180.30
2019-01-30T07:53:26.300Z,98184.28
2019-01-30T07:55:54.368Z,98183.80
2019-01-30T07:58:22.359Z,98185.23
2019-01-30T08:00:50.540Z,98184.36
2019-01-30T08:03:18.661Z,98180.33
2019-01-30T08:05:46.792Z,98178.91
2019-01-30T08:08:14.842Z,98177.21
2019-01-30T08:10:51.174Z,98172.42
2019-01-30T08:13:20.556Z,98176.22
2019-01-30T08:15:48.686Z,98169.94
2019-01-30T08:18:17.083Z,98166.34
2019-01-30T08:20:45.773Z,98167.30
2019-01-30T08:23:13.964Z,98165.38
2019-01-30T08:25:41.945Z,98164.77
2019-01-30T08:28:10.904Z,98157.99
2019-01-30T08:30:39.524Z,98160.82
2019-01-30T08:33:08.137Z,98165.67
2019-01-30T08:35:36.301Z,98171.29
2019-01-30T08:38:22.423Z,98170.56
2019-01-30T08:40:50.300Z,98170.91
2019-01-30T08:43:18.627Z,98172.63
2019-01-30T08:45:46.904Z,98174.70
2019-01-30T08:48:15.114Z,98175.50
2019-01-30T08:50:43.167Z,98177.42
2019-01-30T08:53:11.722Z,98186.55
2019-01-30T08:55:40.074Z,98180.59
2019-01-30T08:58:08.714Z,98190.14
2019-01-30T09:00:37.031Z,98188.33
2019-01-30T09:03:14.464Z,98193.52
2019-01-30T09:05:36.086Z,98183.39
2019-01-30T09:08:04.890Z,98175.98
2019-01-30T09:10:32.841Z,98181.50
2019-01-30T09:13:01.133Z,98179.36
2019-01-30T09:15:29.897Z,98173.53
2019-01-30T09:17:57.971Z,98175.22
2019-01-30T09:20:26.689Z,98180.58
2019-01-30T09:22:54.830Z,98177.99
2019-01-30T09:25:28.280Z,98171.51
2019-01-30T09:27:56.909Z,98179.67
2019-01-30T09:30:39.658Z,98177.28
2019-01-30T09:33:10.519Z,98170.24
2019-01-30T09:35:38.912Z,98175.59
2019-01-30T09:38:13.301Z,98173.24
2019-01-30T09:40:41.596Z,98174.91
2019-01-30T09:43:11.469Z,98171.22
2019-01-30T09:45:39.678Z,98176.06
2019-01-30T09:48:11.691Z,98174.67
2019-01-30T09:50:40.081Z,98173.09
2019-01-30T09:53:31.266Z,98174.80
2019-01-30T09:56:01.722Z,98174.56
2019-01-30T09:58:34.628Z,98177.44
2019-01-30T10:01:09.338Z,98170.53
2019-01-30T10:05:01.674Z,98174.33
2019-01-30T10:07:11.615Z,98174.28
2019-01-30T10:09:39.955Z,98170.42
2019-01-30T10:12:29.589Z,98168.66
2019-01-30T10:15:08.004Z,98163.17
2019-01-30T10:18:15.489Z,98165.28
2019-01-30T10:21:17.767Z,98168.55
2019-01-30T10:24:13.478Z,98164.80
2019-01-30T10:26:36.654Z,98173.30
2019-01-30T10:29:05.373Z,98171.37
2019-01-30T10:31:39.595Z,98168.31
2019-01-30T10:34:07.775Z,98171.66
2019-01-30T10:36:35.095Z,98176.22
2019-01-30T10:39:06.783Z,98165.03
2019-01-30T10:41:35.015Z,98171.47
2019-01-30T10:44:02.487Z,98166.91
2019-01-30T10:46:30.010Z,98167.56
2019-01-30T10:48:57.841Z,98165.64
2019-01-30T10:51:25.305Z,98159.89
2019-01-30T10:53:52.697Z,98165.56
2019-01-30T10:56:20.085Z,98162.66
2019-01-30T10:58:47.691Z,98166.38
2019-01-30T11:01:15.583Z,98166.45
2019-01-30T11:03:43.916Z,98166.17
2019-01-30T11:06:11.567Z,98160.67
2019-01-30T11:08:38.695Z,98162.76
2019-01-30T11:11:07.859Z,98164.10
2019-01-30T11:13:35.662Z,98160.14
2019-01-30T11:16:03.713Z,98165.28
2019-01-30T11:18:31.678Z,98162.84
2019-01-30T11:20:59.201Z,98161.25
2019-01-30T11:23:27.111Z,98154.48
2019-01-30T11:25:56.989Z,98155.58
2019-01-30T11:28:24.533Z,98151.55
2019-01-30T11:30:51.817Z,98150.13
2019-01-30T11:33:19.416Z,98158.48
2019-01-30T11:35:46.759Z,98158.16
2019-01-30T11:38:14.861Z,98146.33
2019-01-30T11:40:42.291Z,98147.63
2019-01-30T11:43:10.340Z,98149.44
2019-01-30T11:45:43.367Z,98144.62
2019-01-30T11:48:10.879Z,98143.36
2019-01-30T11:50:40.186Z,98150.01
2019-01-30T11:53:08.390Z,98149.56
2019-01-30T11:55:35.904Z,98150.99
2019-01-30T11:58:04.228Z,98152.94
2019-01-30T12:00:37.321Z,98149.52
2019-01-30T12:03:05.010Z,98148.46
2019-01-30T12:05:35.621Z,98149.19
2019-01-30T12:08:04.005Z,98146.78
2019-01-30T12:10:31.818Z,98140.13
2019-01-30T12:12:59.644Z,98142.48
2019-01-30T12:15:27.804Z,98145.75
2019-01-30T12:17:55.009Z,98134.27
2019-01-30T12:20:22.325Z,98134.02
2019-01-30T12:22:49.965Z,98130.14
2019-01-30T12:25:19.038Z,98127.16
2019-01-30T12:27:50.909Z,98131.63
2019-01-30T12:30:21.654Z,98125.95
2019-01-30T12:32:49.317Z,98129.05
2019-01-30T12:35:17.330Z,98126.06
2019-01-30T12:37:45.833Z,98127.56
2019-01-30T12:40:15.875Z,98120.75
2019-01-30T12:42:43.892Z,98120.61
2019-01-30T12:45:22.380Z,98119.05
2019-01-30T12:47:50.564Z,98117.41
2019-01-30T12:50:18.503Z,98116.42
2019-01-30T12:52:45.800Z,98112.70
2019-01-30T12:55:13.714Z,98115.32
2019-01-30T12:57:41.159Z,98117.55
2019-01-30T13:00:22.145Z,98116.95
2019-01-30T13:02:50.551Z,98111.56
2019-01-30T13:05:20.378Z,98119.58
2019-01-30T13:07:47.729Z,98118.83
2019-01-30T13:10:15.558Z,98115.14
2019-01-30T13:12:43.232Z,98115.81
2019-01-30T13:15:14.005Z,98126.20
2019-01-30T13:17:42.083Z,98120.25
2019-01-30T13:20:13.650Z,98126.17
2019-01-30T13:22:41.169Z,98124.83
2019-01-30T13:25:09.041Z,98128.80
2019-01-30T13:27:36.627Z,98118.37
2019-01-30T13:30:10.455Z,98122.48
2019-01-30T13:32:37.730Z,98118.54
2019-01-30T13:35:09.455Z,98123.40
2019-01-30T13:37:36.906Z,98118.36
2019-01-30T13:40:09.883Z,98121.16
2019-01-30T13:42:37.318Z,98117.70
2019-01-30T13:45:07.406Z,98130.75
2019-01-30T13:47:34.933Z,98134.02
2019-01-30T13:50:04.899Z,98137.45
2019-01-30T13:52:32.698Z,98140.19
2019-01-30T13:55:00.948Z,98138.31
2019-01-30T13:57:28.918Z,98138.84
2019-01-30T13:59:56.902Z,98137.59
2019-01-30T14:02:24.969Z,98141.89
2019-01-30T14:04:59.278Z,98143.61
2019-01-30T14:07:21.661Z,98148.69
2019-01-30T14:09:49.079Z,98150.25
2019-01-30T14:12:16.551Z,98160.02
2019-01-30T14:14:43.916Z,98161.14
2019-01-30T14:17:11.503Z,98158.19
2019-01-30T14:19:39.401Z,98161.45
2019-01-30T14:22:07.849Z,98174.09
2019-01-30T14:24:35.358Z,98171.74
2019-01-30T14:27:03.218Z,98168.38
2019-01-30T14:29:30.718Z,98173.74
2019-01-30T14:31:58.103Z,98180.33
2019-01-30T14:34:25.674Z,98169.27
2019-01-30T14:36:53.338Z,98177.53
2019-01-30T14:39:20.743Z,98181.87
2019-01-30T14:41:48.333Z,98187.05
2019-01-30T14:44:15.466Z,98178.61
2019-01-30T14:46:42.785Z,98189.60
2019-01-30T14:49:10.250Z,98175.77
2019-01-30T14:51:37.632Z,98186.27
2019-01-30T14:54:05.151Z,98203.08
2019-01-30T14:56:32.714Z,98196.34
2019-01-30T14:59:00.474Z,98207.34
2019-01-30T15:01:27.957Z,98208.27
2019-01-30T15:03:55.958Z,98210.97
2019-01-30T15:06:23.349Z,98214.62
2019-01-30T15:08:50.765Z,98209.23
2019-01-30T15:11:18.646Z,98212.63
2019-01-30T15:13:46.231Z,98220.01
2019-01-30T15:16:14.167Z,98221.07
2019-01-30T15:18:41.792Z,98220.30
2019-01-30T15:21:09.288Z,98226.22
2019-01-30T15:23:37.212Z,98232.14
2019-01-30T15:26:05.265Z,98233.20
2019-01-30T15:28:32.767Z,98228.98
2019-01-30T15:31:00.324Z,98228.52
2019-01-30T15:33:27.800Z,98233.30
2019-01-30T15:35:55.693Z,98244.69
2019-01-30T15:38:23.098Z,98243.68
2019-01-30T15:40:50.962Z,98247.23
2019-01-30T15:43:18.522Z,98258.72
2019-01-30T15:45:45.934Z,98256.42
2019-01-30T15:48:13.849Z,98261.20
2019-01-30T15:50:42.504Z,98271.73
2019-01-30T15:53:13.732Z,98271.30
2019-01-30T15:55:41.854Z,98286.40
2019-01-30T15:58:10.874Z,98284.56
2019-01-30T16:00:48.363Z,98295.47
2019-01-30T16:03:16.155Z,98294.61
2019-01-30T16:05:45.216Z,98296.28
2019-01-30T16:08:12.902Z,98306.33
2019-01-30T16:10:40.594Z,98312.66
2019-01-30T16:13:08.350Z,98310.20
2019-01-30T16:15:46.862Z,98311.30
2019-01-30T16:18:14.486Z,98314.94
2019-01-30T16:20:42.913Z,98329.06
2019-01-30T16:23:10.858Z,98324.94
2019-01-30T16:25:38.379Z,98331.80
2019-01-30T16:28:06.469Z,98334.38
2019-01-30T16:30:33.819Z,98345.44
2019-01-30T16:33:01.330Z,98346.69
2019-01-30T16:35:29.842Z,98354.00
2019-01-30T16:37:57.310Z,98362.86
2019-01-30T16:40:25.873Z,98364.36
2019-01-30T16:42:54.435Z,98372.16
2019-01-30T16:45:24.521Z,98374.50
2019-01-30T16:47:52.417Z,98386.51
2019-01-30T16:50:20.156Z,98386.49
2019-01-30T16:52:47.594Z,98400.33
2019-01-30T16:55:16.562Z,98401.09
2019-01-30T16:57:44.522Z,98410.63
2019-01-30T17:00:28.497Z,98409.69
2019-01-30T17:02:56.032Z,98418.11
2019-01-30T17:05:24.230Z,98420.56
2019-01-30T17:07:52.050Z,98424.95
2019-01-30T17:10:19.953Z,98439.23
2019-01-30T17:12:47.763Z,98439.23
2019-01-30T17:15:18.594Z,98445.34
2019-01-30T17:17:46.340Z,98447.84
2019-01-30T17:20:23.117Z,98458.99
2019-01-30T17:22:50.774Z,98456.92
2019-01-30T17:25:19.117Z,98467.66
2019-01-30T17:27:46.561Z,98463.80
2019-01-30T17:30:18.512Z,98478.38
2019-01-30T17:32:46.352Z,98477.04
2019-01-30T17:35:14.330Z,98479.01
2019-01-30T17:37:42.067Z,98485.69
2019-01-30T17:40:14.840Z,98480.97
2019-01-30T17:42:42.899Z,98483.97
2019-01-30T17:45:10.870Z,98498.67
2019-01-30T17:47:38.217Z,98492.70
2019-01-30T17:50:07.620Z,98499.49
2019-01-30T17:52:35.305Z,98500.12
2019-01-30T17:55:04.545Z,98499.55
2019-01-30T17:57:32.473Z,98505.98
2019-01-30T18:00:00.485Z,98508.30
2019-01-30T18:02:27.955Z,98516.82
2019-01-30T18:04:55.251Z,98516.09
2019-01-30T18:07:22.834Z,98512.53
2019-01-30T18:09:53.202Z,98514.83
2019-01-30T18:12:20.570Z,98523.84
2019-01-30T18:14:48.685Z,98529.13
2019-01-30T18:17:16.633Z,98530.76
2019-01-30T18:19:44.206Z,98540.30
2019-01-30T18:22:11.837Z,98539.23
2019-01-30T18:24:39.078Z,98542.60
2019-01-30T18:27:06.815Z,98541.50
2019-01-30T18:29:34.342Z,98546.27
2019-01-30T18:32:02.315Z,98551.92
2019-01-30T18:34:30.145Z,98553.27
2019-01-30T18:36:57.669Z,98558.80
2019-01-30T18:39:25.073Z,98562.34
2019-01-30T18:41:52.235Z,98566.41
2019-01-30T18:44:20.380Z,98570.80
2019-01-30T18:46:47.773Z,98562.89
2019-01-30T18:49:15.153Z,98575.64
2019-01-30T18:51:42.913Z,98579.41
2019-01-30T18:54:10.634Z,98590.49
2019-01-30T18:56:42.094Z,98589.81
2019-01-30T18:59:09.364Z,98589.88
2019-01-30T19:01:37.249Z,98590.78
2019-01-30T19:04:05.342Z,98590.73
2019-01-30T19:06:32.971Z,98591.47
2019-01-30T19:09:00.407Z,98598.20
2019-01-30T19:11:28.443Z,98594.28
2019-01-30T19:13:55.594Z,98593.11
2019-01-30T19:16:23.190Z,98600.36
2019-01-30T19:18:50.343Z,98604.47
2019-01-30T19:21:17.987Z,98609.34
2019-01-30T19:23:45.681Z,98613.75
2019-01-30T19:26:13.665Z,98605.09
2019-01-30T19:28:41.474Z,98604.56
2019-01-30T19:31:08.857Z,98608.81
2019-01-30T19:33:36.407Z,98615.99
2019-01-30T19:36:05.734Z,98611.05
2019-01-30T19:38:33.290Z,98618.69
2019-01-30T19:41:01.088Z,98615.02
2019-01-30T19:43:28.383Z,98612.09
2019-01-30T19:45:55.671Z,98627.48
2019-01-30T19:48:23.554Z,98621.16
2019-01-30T19:50:51.201Z,98623.25
2019-01-30T19:53:19.186Z,98622.63
2019-01-30T19:55:47.069Z,98622.44
2019-01-30T19:58:14.800Z,98638.65
2019-01-30T20:00:45.933Z,98637.37
2019-01-30T20:03:20.090Z,98643.14
2019-01-30T20:05:48.318Z,98645.31
2019-01-30T20:08:15.847Z,98647.34
2019-01-30T20:10:44.247Z,98643.66
2019-01-30T20:13:11.574Z,98644.34
2019-01-30T20:15:39.072Z,98646.20
2019-01-30T20:18:07.435Z,98644.48
2019-01-30T20:20:35.344Z,98648.69
2019-01-30T20:23:03.568Z,98648.45
2019-01-30T20:25:33.389Z,98657.19
2019-01-30T20:28:00.904Z,98654.44
2019-01-30T20:30:28.920Z,98655.19
2019-01-30T20:32:56.890Z,98660.80
2019-01-30T20:35:24.568Z,98670.82
2019-01-30T20:37:52.422Z,98675.22
2019-01-30T20:40:22.818Z,98684.70
2019-01-30T20:42:52.778Z,98684.28
2019-01-30T20:45:20.279Z,98686.80
2019-01-30T20:47:48.193Z,98687.98
2019-01-30T20:50:19.331Z,98696.00
2019-01-30T20:52:47.071Z,98701.97
2019-01-30T20:55:16.716Z,98702.91
2019-01-30T20:57:44.191Z,98699.80
2019-01-30T21:00:19.330Z,98695.59
2019-01-30T21:02:46.829Z,98705.08
2019-01-30T21:05:14.792Z,98702.83
2019-01-30T21:07:41.941Z,98708.00
2019-01-30T21:10:14.026Z,98707.02
2019-01-30T21:12:41.236Z,98708.34
2019-01-30T21:15:11.042Z,98725.06
2019-01-30T21:17:38.380Z,98722.14
2019-01-30T21:20:06.119Z,98720.33
2019-01-30T21:22:33.371Z,98725.83
2019-01-30T21:25:00.791Z,98727.47
2019-01-30T21:27:28.052Z,98720.08
2019-01-30T21:29:55.773Z,98727.95
2019-01-30T21:32:23.608Z,98726.00
2019-01-30T21:34:51.639Z,98725.02
2019-01-30T21:37:20.627Z,98726.66
2019-01-30T21:39:47.940Z,98728.71
2019-01-30T21:42:15.302Z,98739.00
2019-01-30T21:44:43.083Z,98736.78
2019-01-30T21:47:11.353Z,98732.73
2019-01-30T21:49:39.073Z,98742.98
2019-01-30T21:52:06.820Z,98742.00
2019-01-30T21:54:34.636Z,98742.63
2019-01-30T21:57:02.394Z,98743.97
2019-01-30T21:59:31.823Z,98746.13
2019-01-30T22:02:08.115Z,98747.23
2019-01-30T22:04:28.757Z,98747.01
2019-01-30T22:06:56.383Z,98744.25
2019-01-30T22:09:23.878Z,98746.53
2019-01-30T22:11:51.775Z,98752.48
2019-01-30T22:14:19.148Z,98753.83
2019-01-30T22:16:47.306Z,98749.40
2019-01-30T22:19:14.461Z,98751.84
2019-01-30T22:21:41.824Z,98753.36
2019-01-30T22:24:09.383Z,98755.00
2019-01-30T22:26:36.945Z,98755.83
2019-01-30T22:29:04.834Z,98755.34
2019-01-30T22:31:32.069Z,98752.66
2019-01-30T22:33:59.847Z,98753.70
2019-01-30T22:36:27.116Z,98751.02
2019-01-30T22:38:54.475Z,98753.33
2019-01-30T22:41:23.764Z,98751.09
2019-01-30T22:43:51.275Z,98753.74
2019-01-30T22:46:18.628Z,98756.06
2019-01-30T22:48:46.176Z,98752.30
2019-01-30T22:51:13.718Z,98755.39
2019-01-30T22:53:41.258Z,98755.99
2019-01-30T22:56:09.841Z,98754.50
2019-01-30T22:58:37.804Z,98758.64
2019-01-30T23:01:41.609Z,98766.48
2019-01-30T23:04:46.017Z,98772.61
2019-01-30T23:07:57.292Z,98771.30
2019-01-30T23:10:56.011Z,98769.88
2019-01-30T23:13:58.868Z,98773.61
2019-01-30T23:17:40.310Z,98770.62
2019-01-30T23:20:38.849Z,98777.18
2019-01-30T23:24:08.466Z,98779.28
2019-01-30T23:27:09.124Z,98783.81
2019-01-30T23:30:35.677Z,98781.05
2019-01-30T23:34:29.886Z,98776.00
2019-01-30T23:37:39.602Z,98775.89
2019-01-30T23:40:50.345Z,98777.61
2019-01-30T23:44:24.598Z,98781.89
2019-01-30T23:47:51.886Z,98773.75
2019-01-30T23:50:55.898Z,98776.05
2019-01-30T23:54:50.215Z,98780.92
2019-01-30T23:58:03.081Z,98779.88
